sensor_id;sensor_type;location;lat;lon;timestamp;temperature;humidity
7784;DHT22;19359;51.402;6.778;2023-09-18T00:04:41;18.60;99.90
7784;DHT22;19359;51.402;6.778;2023-09-18T00:07:08;18.50;99.90
7784;DHT22;19359;51.402;6.778;2023-09-18T00:12:04;18.40;99.90
7784;DHT22;19359;51.402;6.778;2023-09-18T00:14:33;18.60;99.90
7784;DHT22;19359;51.402;6.778;2023-09-18T00:17:00;18.50;99.90
7784;DHT22;19359;51.402;6.778;2023-09-18T00:19:26;18.50;99.90
7784;DHT22;19359;51.402;6.778;2023-09-18T00:21:54;18.50;99.90
7784;DHT22;19359;51.402;6.778;2023-09-18T00:24:21;18.70;99.90
7784;DHT22;19359;51.402;6.778;2023-09-18T00:26:50;18.30;99.90
7784;DHT22;19359;51.402;6.778;2023-09-18T00:29:18;18.50;99.90
7784;DHT22;19359;51.402;6.778;2023-09-18T00:31:46;18.50;99.90
7784;DHT22;19359;51.402;6.778;2023-09-18T00:34:13;18.40;99.90
7784;DHT22;19359;51.402;6.778;2023-09-18T00:36:40;18.40;99.90
7784;DHT22;19359;51.402;6.778;2023-09-18T00:39:06;18.40;99.90
7784;DHT22;19359;51.402;6.778;2023-09-18T00:41:33;18.60;99.90
7784;DHT22;19359;51.402;6.778;2023-09-18T00:44:00;18.40;99.90
7784;DHT22;19359;51.402;6.778;2023-09-18T00:46:27;18.40;99.90
7784;DHT22;19359;51.402;6.778;2023-09-18T00:48:55;18.40;99.90
7784;DHT22;19359;51.402;6.778;2023-09-18T00:51:22;18.40;99.90
7784;DHT22;19359;51.402;6.778;2023-09-18T00:53:49;18.40;99.90
7784;DHT22;19359;51.402;6.778;2023-09-18T00:56:17;18.40;99.90
7784;DHT22;19359;51.402;6.778;2023-09-18T00:58:46;18.40;99.90
7784;DHT22;19359;51.402;6.778;2023-09-18T01:01:16;18.40;99.90
7784;DHT22;19359;51.402;6.778;2023-09-18T01:03:48;18.30;99.90
7784;DHT22;19359;51.402;6.778;2023-09-18T01:06:16;18.40;99.90
7784;DHT22;19359;51.402;6.778;2023-09-18T01:08:44;18.30;99.90
7784;DHT22;19359;51.402;6.778;2023-09-18T01:11:18;18.30;99.90
7784;DHT22;19359;51.402;6.778;2023-09-18T01:13:51;18.30;99.90
7784;DHT22;19359;51.402;6.778;2023-09-18T01:16:30;18.30;99.90
7784;DHT22;19359;51.402;6.778;2023-09-18T01:18:58;18.20;99.90
7784;DHT22;19359;51.402;6.778;2023-09-18T01:21:29;18.20;99.90
7784;DHT22;19359;51.402;6.778;2023-09-18T01:23:57;18.10;99.90
7784;DHT22;19359;51.402;6.778;2023-09-18T01:26:24;18.10;99.90
7784;DHT22;19359;51.402;6.778;2023-09-18T01:28:51;18.20;99.90
7784;DHT22;19359;51.402;6.778;2023-09-18T01:31:18;18.20;99.90
7784;DHT22;19359;51.402;6.778;2023-09-18T01:33:45;18.00;99.90
7784;DHT22;19359;51.402;6.778;2023-09-18T01:36:14;18.10;99.90
7784;DHT22;19359;51.402;6.778;2023-09-18T01:38:44;18.20;99.90
7784;DHT22;19359;51.402;6.778;2023-09-18T01:41:13;18.20;99.90
7784;DHT22;19359;51.402;6.778;2023-09-18T01:43:39;18.20;99.90
7784;DHT22;19359;51.402;6.778;2023-09-18T01:46:06;18.20;99.90
7784;DHT22;19359;51.402;6.778;2023-09-18T01:48:33;18.20;99.90
7784;DHT22;19359;51.402;6.778;2023-09-18T01:51:00;18.20;99.90
7784;DHT22;19359;51.402;6.778;2023-09-18T01:53:27;18.20;99.90
7784;DHT22;19359;51.402;6.778;2023-09-18T01:55:53;18.20;99.90
7784;DHT22;19359;51.402;6.778;2023-09-18T01:58:22;18.20;99.90
7784;DHT22;19359;51.402;6.778;2023-09-18T02:00:48;18.20;99.90
7784;DHT22;19359;51.402;6.778;2023-09-18T02:03:15;18.20;99.90
7784;DHT22;19359;51.402;6.778;2023-09-18T02:05:43;18.20;99.90
7784;DHT22;19359;51.402;6.778;2023-09-18T02:08:10;18.20;99.90
7784;DHT22;19359;51.402;6.778;2023-09-18T02:10:37;18.20;99.90
7784;DHT22;19359;51.402;6.778;2023-09-18T02:13:04;18.20;99.90
7784;DHT22;19359;51.402;6.778;2023-09-18T02:15:32;18.30;99.90
7784;DHT22;19359;51.402;6.778;2023-09-18T02:18:00;18.20;99.90
7784;DHT22;19359;51.402;6.778;2023-09-18T02:20:28;18.40;99.90
7784;DHT22;19359;51.402;6.778;2023-09-18T02:22:54;18.30;99.90
7784;DHT22;19359;51.402;6.778;2023-09-18T02:25:21;18.20;99.90
7784;DHT22;19359;51.402;6.778;2023-09-18T02:27:48;18.40;99.90
7784;DHT22;19359;51.402;6.778;2023-09-18T02:30:17;18.40;99.90
7784;DHT22;19359;51.402;6.778;2023-09-18T02:32:46;18.40;99.90
7784;DHT22;19359;51.402;6.778;2023-09-18T02:35:13;18.40;99.90
7784;DHT22;19359;51.402;6.778;2023-09-18T02:40:08;18.40;99.90
7784;DHT22;19359;51.402;6.778;2023-09-18T02:42:35;18.30;99.90
7784;DHT22;19359;51.402;6.778;2023-09-18T02:45:02;18.30;99.90
7784;DHT22;19359;51.402;6.778;2023-09-18T02:47:29;18.30;99.90
7784;DHT22;19359;51.402;6.778;2023-09-18T02:49:57;18.20;99.90
7784;DHT22;19359;51.402;6.778;2023-09-18T02:52:24;18.30;99.90
7784;DHT22;19359;51.402;6.778;2023-09-18T02:54:50;18.20;99.90
7784;DHT22;19359;51.402;6.778;2023-09-18T02:57:17;18.50;99.90
7784;DHT22;19359;51.402;6.778;2023-09-18T02:59:44;18.50;99.90
7784;DHT22;19359;51.402;6.778;2023-09-18T03:02:11;18.70;99.90
7784;DHT22;19359;51.402;6.778;2023-09-18T03:04:38;18.70;99.90
7784;DHT22;19359;51.402;6.778;2023-09-18T03:07:06;18.90;99.90
7784;DHT22;19359;51.402;6.778;2023-09-18T03:09:33;19.00;99.90
7784;DHT22;19359;51.402;6.778;2023-09-18T03:12:01;19.30;99.90
7784;DHT22;19359;51.402;6.778;2023-09-18T03:14:27;19.40;99.90
7784;DHT22;19359;51.402;6.778;2023-09-18T03:16:54;19.70;99.90
7784;DHT22;19359;51.402;6.778;2023-09-18T03:19:21;19.90;99.90
7784;DHT22;19359;51.402;6.778;2023-09-18T03:21:50;19.90;99.90
7784;DHT22;19359;51.402;6.778;2023-09-18T03:24:18;20.00;99.90
7784;DHT22;19359;51.402;6.778;2023-09-18T03:26:45;20.10;99.90
7784;DHT22;19359;51.402;6.778;2023-09-18T03:29:12;20.20;99.90
7784;DHT22;19359;51.402;6.778;2023-09-18T03:31:38;20.20;99.90
7784;DHT22;19359;51.402;6.778;2023-09-18T03:34:05;20.20;99.90
7784;DHT22;19359;51.402;6.778;2023-09-18T03:36:32;20.20;99.90
7784;DHT22;19359;51.402;6.778;2023-09-18T03:39:00;20.20;99.90
7784;DHT22;19359;51.402;6.778;2023-09-18T03:41:29;20.20;99.90
7784;DHT22;19359;51.402;6.778;2023-09-18T03:43:59;20.20;99.90
7784;DHT22;19359;51.402;6.778;2023-09-18T03:46:26;20.20;99.90
7784;DHT22;19359;51.402;6.778;2023-09-18T03:48:53;20.20;99.90
7784;DHT22;19359;51.402;6.778;2023-09-18T03:51:20;20.10;99.90
7784;DHT22;19359;51.402;6.778;2023-09-18T03:53:47;20.20;99.90
7784;DHT22;19359;51.402;6.778;2023-09-18T03:56:14;20.20;99.90
7784;DHT22;19359;51.402;6.778;2023-09-18T03:58:42;20.00;99.90
7784;DHT22;19359;51.402;6.778;2023-09-18T04:01:10;20.20;99.90
7784;DHT22;19359;51.402;6.778;2023-09-18T04:03:37;20.20;99.90
7784;DHT22;19359;51.402;6.778;2023-09-18T04:06:04;20.20;99.90
7784;DHT22;19359;51.402;6.778;2023-09-18T04:08:32;20.10;99.90
7784;DHT22;19359;51.402;6.778;2023-09-18T04:10:59;20.00;99.90
7784;DHT22;19359;51.402;6.778;2023-09-18T04:13:26;20.20;99.90
7784;DHT22;19359;51.402;6.778;2023-09-18T04:15:54;20.20;99.90
7784;DHT22;19359;51.402;6.778;2023-09-18T04:18:22;20.40;99.90
7784;DHT22;19359;51.402;6.778;2023-09-18T04:20:49;20.40;99.90
7784;DHT22;19359;51.402;6.778;2023-09-18T04:23:18;20.40;99.90
7784;DHT22;19359;51.402;6.778;2023-09-18T04:25:46;20.30;99.90
7784;DHT22;19359;51.402;6.778;2023-09-18T04:28:13;20.30;99.90
7784;DHT22;19359;51.402;6.778;2023-09-18T04:30:40;20.40;99.90
7784;DHT22;19359;51.402;6.778;2023-09-18T04:33:08;20.40;99.90
7784;DHT22;19359;51.402;6.778;2023-09-18T04:35:35;20.40;99.90
7784;DHT22;19359;51.402;6.778;2023-09-18T04:38:03;20.30;99.90
7784;DHT22;19359;51.402;6.778;2023-09-18T04:40:30;20.30;99.90
7784;DHT22;19359;51.402;6.778;2023-09-18T04:42:58;20.20;99.90
7784;DHT22;19359;51.402;6.778;2023-09-18T04:45:25;20.30;1.00
7784;DHT22;19359;51.402;6.778;2023-09-18T04:50:20;20.40;99.90
7784;DHT22;19359;51.402;6.778;2023-09-18T04:55:16;20.30;99.90
7784;DHT22;19359;51.402;6.778;2023-09-18T04:57:43;20.20;99.90
7784;DHT22;19359;51.402;6.778;2023-09-18T05:00:11;20.20;99.90
7784;DHT22;19359;51.402;6.778;2023-09-18T05:05:07;20.30;99.90
7784;DHT22;19359;51.402;6.778;2023-09-18T05:07:36;20.10;99.90
7784;DHT22;19359;51.402;6.778;2023-09-18T05:10:04;20.20;99.90
7784;DHT22;19359;51.402;6.778;2023-09-18T05:12:31;20.10;99.90
7784;DHT22;19359;51.402;6.778;2023-09-18T05:14:58;20.10;99.90
7784;DHT22;19359;51.402;6.778;2023-09-18T05:17:40;20.00;99.90
7784;DHT22;19359;51.402;6.778;2023-09-18T05:20:09;19.80;99.90
7784;DHT22;19359;51.402;6.778;2023-09-18T05:22:38;20.30;4.70
7784;DHT22;19359;51.402;6.778;2023-09-18T05:25:05;20.00;1.00
7784;DHT22;19359;51.402;6.778;2023-09-18T05:27:32;20.00;99.90
7784;DHT22;19359;51.402;6.778;2023-09-18T05:29:59;20.00;1.00
7784;DHT22;19359;51.402;6.778;2023-09-18T05:32:26;20.00;1.00
7784;DHT22;19359;51.402;6.778;2023-09-18T05:34:53;19.80;99.90
7784;DHT22;19359;51.402;6.778;2023-09-18T05:37:19;20.00;99.90
7784;DHT22;19359;51.402;6.778;2023-09-18T05:39:48;20.00;99.90
7784;DHT22;19359;51.402;6.778;2023-09-18T05:42:14;20.00;99.90
7784;DHT22;19359;51.402;6.778;2023-09-18T05:44:41;20.00;99.90
7784;DHT22;19359;51.402;6.778;2023-09-18T05:49:35;20.00;99.90
7784;DHT22;19359;51.402;6.778;2023-09-18T05:52:02;19.90;99.90
7784;DHT22;19359;51.402;6.778;2023-09-18T05:54:29;19.90;99.90
7784;DHT22;19359;51.402;6.778;2023-09-18T05:56:57;19.90;99.90
7784;DHT22;19359;51.402;6.778;2023-09-18T05:59:24;20.00;99.90
7784;DHT22;19359;51.402;6.778;2023-09-18T06:01:51;20.00;1.00
7784;DHT22;19359;51.402;6.778;2023-09-18T06:04:19;19.80;99.90
7784;DHT22;19359;51.402;6.778;2023-09-18T06:06:46;20.00;99.90
7784;DHT22;19359;51.402;6.778;2023-09-18T06:09:13;20.00;99.90
7784;DHT22;19359;51.402;6.778;2023-09-18T06:14:10;20.10;99.90
7784;DHT22;19359;51.402;6.778;2023-09-18T06:16:37;20.10;99.90
7784;DHT22;19359;51.402;6.778;2023-09-18T06:19:04;20.10;99.90
7784;DHT22;19359;51.402;6.778;2023-09-18T06:21:30;20.20;99.90
7784;DHT22;19359;51.402;6.778;2023-09-18T06:23:57;20.20;99.90
7784;DHT22;19359;51.402;6.778;2023-09-18T06:26:24;20.40;3.00
7784;DHT22;19359;51.402;6.778;2023-09-18T06:28:51;20.30;2.50
7784;DHT22;19359;51.402;6.778;2023-09-18T06:31:21;20.30;99.90
7784;DHT22;19359;51.402;6.778;2023-09-18T06:33:48;20.10;99.90
7784;DHT22;19359;51.402;6.778;2023-09-18T06:36:15;20.20;99.90
7784;DHT22;19359;51.402;6.778;2023-09-18T06:38:42;20.40;99.90
7784;DHT22;19359;51.402;6.778;2023-09-18T06:41:09;20.40;99.90
7784;DHT22;19359;51.402;6.778;2023-09-18T06:43:36;20.50;99.90
7784;DHT22;19359;51.402;6.778;2023-09-18T06:46:02;20.40;99.90
7784;DHT22;19359;51.402;6.778;2023-09-18T06:48:31;20.50;99.90
7784;DHT22;19359;51.402;6.778;2023-09-18T06:50:58;20.60;99.90
7784;DHT22;19359;51.402;6.778;2023-09-18T06:53:25;20.60;99.90
7784;DHT22;19359;51.402;6.778;2023-09-18T06:55:53;20.70;99.90
7784;DHT22;19359;51.402;6.778;2023-09-18T06:58:19;20.60;99.90
7784;DHT22;19359;51.402;6.778;2023-09-18T07:00:47;20.70;99.90
7784;DHT22;19359;51.402;6.778;2023-09-18T07:03:15;20.80;99.90
7784;DHT22;19359;51.402;6.778;2023-09-18T07:05:44;20.90;99.90
7784;DHT22;19359;51.402;6.778;2023-09-18T07:08:11;20.90;99.90
7784;DHT22;19359;51.402;6.778;2023-09-18T07:10:38;21.00;99.90
7784;DHT22;19359;51.402;6.778;2023-09-18T07:13:05;21.10;99.90
7784;DHT22;19359;51.402;6.778;2023-09-18T07:15:32;21.00;99.90
7784;DHT22;19359;51.402;6.778;2023-09-18T07:17:59;20.70;99.90
7784;DHT22;19359;51.402;6.778;2023-09-18T07:20:25;21.00;99.90
7784;DHT22;19359;51.402;6.778;2023-09-18T07:22:54;21.10;1.00
7784;DHT22;19359;51.402;6.778;2023-09-18T07:25:21;20.80;99.90
7784;DHT22;19359;51.402;6.778;2023-09-18T07:27:48;21.10;99.90
7784;DHT22;19359;51.402;6.778;2023-09-18T07:30:15;20.80;99.90
7784;DHT22;19359;51.402;6.778;2023-09-18T07:32:43;21.10;99.90
7784;DHT22;19359;51.402;6.778;2023-09-18T07:35:10;21.00;99.90
7784;DHT22;19359;51.402;6.778;2023-09-18T07:37:37;21.00;99.90
7784;DHT22;19359;51.402;6.778;2023-09-18T07:40:06;21.00;99.90
7784;DHT22;19359;51.402;6.778;2023-09-18T07:42:33;21.00;99.90
7784;DHT22;19359;51.402;6.778;2023-09-18T07:45:00;21.20;99.90
7784;DHT22;19359;51.402;6.778;2023-09-18T07:47:27;21.10;99.90
7784;DHT22;19359;51.402;6.778;2023-09-18T07:49:54;21.10;99.90
7784;DHT22;19359;51.402;6.778;2023-09-18T07:52:20;21.20;99.90
7784;DHT22;19359;51.402;6.778;2023-09-18T07:54:47;21.20;99.90
7784;DHT22;19359;51.402;6.778;2023-09-18T07:57:15;21.10;99.90
7784;DHT22;19359;51.402;6.778;2023-09-18T07:59:42;21.20;99.90
7784;DHT22;19359;51.402;6.778;2023-09-18T08:04:37;21.20;99.90
7784;DHT22;19359;51.402;6.778;2023-09-18T08:07:04;21.30;99.90
7784;DHT22;19359;51.402;6.778;2023-09-18T08:09:32;21.40;99.90
7784;DHT22;19359;51.402;6.778;2023-09-18T08:12:01;21.30;99.90
7784;DHT22;19359;51.402;6.778;2023-09-18T08:14:30;21.20;99.90
7784;DHT22;19359;51.402;6.778;2023-09-18T08:16:57;21.30;99.90
7784;DHT22;19359;51.402;6.778;2023-09-18T08:19:24;21.50;99.90
7784;DHT22;19359;51.402;6.778;2023-09-18T08:21:53;21.40;99.90
7784;DHT22;19359;51.402;6.778;2023-09-18T08:24:21;21.20;99.90
7784;DHT22;19359;51.402;6.778;2023-09-18T08:26:48;21.50;99.90
7784;DHT22;19359;51.402;6.778;2023-09-18T08:29:15;21.50;99.90
7784;DHT22;19359;51.402;6.778;2023-09-18T08:31:43;21.50;99.90
7784;DHT22;19359;51.402;6.778;2023-09-18T08:34:10;21.40;99.90
7784;DHT22;19359;51.402;6.778;2023-09-18T08:36:37;21.70;99.90
7784;DHT22;19359;51.402;6.778;2023-09-18T08:39:04;21.80;99.90
7784;DHT22;19359;51.402;6.778;2023-09-18T08:41:33;21.70;99.90
7784;DHT22;19359;51.402;6.778;2023-09-18T08:44:02;21.70;99.90
7784;DHT22;19359;51.402;6.778;2023-09-18T08:46:30;21.70;99.90
7784;DHT22;19359;51.402;6.778;2023-09-18T08:48:59;21.80;99.90
7784;DHT22;19359;51.402;6.778;2023-09-18T08:51:26;21.70;99.90
7784;DHT22;19359;51.402;6.778;2023-09-18T08:53:54;21.70;99.90
7784;DHT22;19359;51.402;6.778;2023-09-18T08:56:21;21.80;99.90
7784;DHT22;19359;51.402;6.778;2023-09-18T08:58:49;21.70;99.90
7784;DHT22;19359;51.402;6.778;2023-09-18T09:01:16;21.80;99.90
7784;DHT22;19359;51.402;6.778;2023-09-18T09:03:43;21.90;99.90
7784;DHT22;19359;51.402;6.778;2023-09-18T09:06:12;22.00;99.90
7784;DHT22;19359;51.402;6.778;2023-09-18T09:08:39;21.90;99.90
7784;DHT22;19359;51.402;6.778;2023-09-18T09:11:06;22.10;99.90
7784;DHT22;19359;51.402;6.778;2023-09-18T09:13:33;22.10;99.90
7784;DHT22;19359;51.402;6.778;2023-09-18T09:16:00;22.10;99.90
7784;DHT22;19359;51.402;6.778;2023-09-18T09:18:28;22.30;99.90
7784;DHT22;19359;51.402;6.778;2023-09-18T09:20:58;22.40;99.90
7784;DHT22;19359;51.402;6.778;2023-09-18T09:23:27;22.60;99.90
7784;DHT22;19359;51.402;6.778;2023-09-18T09:26:11;22.60;99.90
7784;DHT22;19359;51.402;6.778;2023-09-18T09:28:38;22.40;99.90
7784;DHT22;19359;51.402;6.778;2023-09-18T09:31:05;22.40;99.90
7784;DHT22;19359;51.402;6.778;2023-09-18T09:33:32;22.30;99.90
7784;DHT22;19359;51.402;6.778;2023-09-18T09:35:59;22.60;99.90
7784;DHT22;19359;51.402;6.778;2023-09-18T09:38:30;22.60;99.90
7784;DHT22;19359;51.402;6.778;2023-09-18T09:40:59;22.60;99.90
7784;DHT22;19359;51.402;6.778;2023-09-18T09:43:27;22.70;99.90
7784;DHT22;19359;51.402;6.778;2023-09-18T09:45:57;22.90;99.90
7784;DHT22;19359;51.402;6.778;2023-09-18T09:48:25;22.80;99.90
7784;DHT22;19359;51.402;6.778;2023-09-18T09:50:52;22.70;99.90
7784;DHT22;19359;51.402;6.778;2023-09-18T09:53:44;22.50;99.90
7784;DHT22;19359;51.402;6.778;2023-09-18T09:56:12;22.50;99.90
7784;DHT22;19359;51.402;6.778;2023-09-18T09:58:39;22.60;99.90
7784;DHT22;19359;51.402;6.778;2023-09-18T10:01:12;22.50;99.90
7784;DHT22;19359;51.402;6.778;2023-09-18T10:03:44;22.80;99.90
7784;DHT22;19359;51.402;6.778;2023-09-18T10:06:12;22.90;99.90
7784;DHT22;19359;51.402;6.778;2023-09-18T10:08:40;23.00;99.90
7784;DHT22;19359;51.402;6.778;2023-09-18T10:11:09;22.80;99.90
7784;DHT22;19359;51.402;6.778;2023-09-18T10:13:46;23.10;1.00
7784;DHT22;19359;51.402;6.778;2023-09-18T10:16:17;23.00;1.00
7784;DHT22;19359;51.402;6.778;2023-09-18T10:18:54;22.80;99.90
7784;DHT22;19359;51.402;6.778;2023-09-18T10:21:26;22.70;99.90
7784;DHT22;19359;51.402;6.778;2023-09-18T10:24:01;22.90;99.90
7784;DHT22;19359;51.402;6.778;2023-09-18T10:26:37;22.90;99.90
7784;DHT22;19359;51.402;6.778;2023-09-18T10:29:09;22.90;99.90
7784;DHT22;19359;51.402;6.778;2023-09-18T10:34:07;23.00;99.90
7784;DHT22;19359;51.402;6.778;2023-09-18T10:36:34;23.10;99.90
7784;DHT22;19359;51.402;6.778;2023-09-18T10:39:03;23.20;99.90
7784;DHT22;19359;51.402;6.778;2023-09-18T10:41:35;22.90;99.90
7784;DHT22;19359;51.402;6.778;2023-09-18T10:44:03;23.20;99.90
7784;DHT22;19359;51.402;6.778;2023-09-18T10:46:30;23.10;99.90
7784;DHT22;19359;51.402;6.778;2023-09-18T10:48:58;23.10;99.90
7784;DHT22;19359;51.402;6.778;2023-09-18T10:51:26;23.20;99.90
7784;DHT22;19359;51.402;6.778;2023-09-18T10:53:56;23.40;99.90
7784;DHT22;19359;51.402;6.778;2023-09-18T10:56:24;23.40;99.90
7784;DHT22;19359;51.402;6.778;2023-09-18T10:58:58;23.80;99.90
7784;DHT22;19359;51.402;6.778;2023-09-18T11:01:25;23.70;99.90
7784;DHT22;19359;51.402;6.778;2023-09-18T11:03:58;23.80;99.90
7784;DHT22;19359;51.402;6.778;2023-09-18T11:06:27;23.70;99.90
7784;DHT22;19359;51.402;6.778;2023-09-18T11:08:59;24.00;99.90
7784;DHT22;19359;51.402;6.778;2023-09-18T11:11:29;24.00;99.90
7784;DHT22;19359;51.402;6.778;2023-09-18T11:13:59;24.20;99.90
7784;DHT22;19359;51.402;6.778;2023-09-18T11:16:34;24.40;99.90
7784;DHT22;19359;51.402;6.778;2023-09-18T11:19:11;24.40;99.90
7784;DHT22;19359;51.402;6.778;2023-09-18T11:21:39;24.60;1.00
7784;DHT22;19359;51.402;6.778;2023-09-18T11:24:07;24.90;99.90
7784;DHT22;19359;51.402;6.778;2023-09-18T11:26:39;24.70;1.00
7784;DHT22;19359;51.402;6.778;2023-09-18T11:29:09;24.60;99.90
7784;DHT22;19359;51.402;6.778;2023-09-18T11:31:47;24.80;1.00
7784;DHT22;19359;51.402;6.778;2023-09-18T11:34:15;24.70;1.00
7784;DHT22;19359;51.402;6.778;2023-09-18T11:36:46;24.80;99.90
7784;DHT22;19359;51.402;6.778;2023-09-18T11:39:13;24.70;1.00
7784;DHT22;19359;51.402;6.778;2023-09-18T11:41:40;24.40;99.90
7784;DHT22;19359;51.402;6.778;2023-09-18T11:44:33;24.20;1.00
7784;DHT22;19359;51.402;6.778;2023-09-18T11:47:07;24.50;99.90
7784;DHT22;19359;51.402;6.778;2023-09-18T11:49:35;24.60;99.90
7784;DHT22;19359;51.402;6.778;2023-09-18T11:52:03;24.60;99.90
7784;DHT22;19359;51.402;6.778;2023-09-18T11:54:32;24.50;99.90
7784;DHT22;19359;51.402;6.778;2023-09-18T11:57:03;24.70;99.90
7784;DHT22;19359;51.402;6.778;2023-09-18T11:59:40;24.80;99.90
7784;DHT22;19359;51.402;6.778;2023-09-18T12:02:08;24.90;99.90
7784;DHT22;19359;51.402;6.778;2023-09-18T12:04:36;24.60;99.90
7784;DHT22;19359;51.402;6.778;2023-09-18T12:07:03;24.60;99.90
7784;DHT22;19359;51.402;6.778;2023-09-18T12:09:31;24.90;99.90
7784;DHT22;19359;51.402;6.778;2023-09-18T12:11:58;25.30;99.90
7784;DHT22;19359;51.402;6.778;2023-09-18T12:14:30;25.60;99.90
7784;DHT22;19359;51.402;6.778;2023-09-18T12:16:59;25.80;99.90
7784;DHT22;19359;51.402;6.778;2023-09-18T12:19:28;25.90;99.90
7784;DHT22;19359;51.402;6.778;2023-09-18T12:21:55;26.00;99.90
7784;DHT22;19359;51.402;6.778;2023-09-18T12:24:22;26.10;99.90
7784;DHT22;19359;51.402;6.778;2023-09-18T12:29:16;26.60;99.90
7784;DHT22;19359;51.402;6.778;2023-09-18T12:34:16;26.20;99.90
7784;DHT22;19359;51.402;6.778;2023-09-18T12:36:43;26.30;99.90
7784;DHT22;19359;51.402;6.778;2023-09-18T12:39:12;26.40;99.90
7784;DHT22;19359;51.402;6.778;2023-09-18T12:41:42;27.00;99.90
7784;DHT22;19359;51.402;6.778;2023-09-18T12:44:09;27.30;99.90
7784;DHT22;19359;51.402;6.778;2023-09-18T12:46:37;28.00;99.90
7784;DHT22;19359;51.402;6.778;2023-09-18T12:49:18;28.40;99.90
7784;DHT22;19359;51.402;6.778;2023-09-18T12:51:56;28.20;99.90
7784;DHT22;19359;51.402;6.778;2023-09-18T12:54:37;28.20;99.90
7784;DHT22;19359;51.402;6.778;2023-09-18T12:57:05;28.40;99.90
7784;DHT22;19359;51.402;6.778;2023-09-18T12:59:32;28.30;99.90
7784;DHT22;19359;51.402;6.778;2023-09-18T13:02:01;27.70;99.90
7784;DHT22;19359;51.402;6.778;2023-09-18T13:04:31;27.90;99.90
7784;DHT22;19359;51.402;6.778;2023-09-18T13:07:10;27.50;99.90
7784;DHT22;19359;51.402;6.778;2023-09-18T13:09:37;28.20;99.90
7784;DHT22;19359;51.402;6.778;2023-09-18T13:12:05;28.90;99.90
7784;DHT22;19359;51.402;6.778;2023-09-18T13:14:57;28.30;99.90
7784;DHT22;19359;51.402;6.778;2023-09-18T13:17:24;28.30;99.90
7784;DHT22;19359;51.402;6.778;2023-09-18T13:22:23;28.40;99.90
7784;DHT22;19359;51.402;6.778;2023-09-18T13:24:55;28.60;99.90
7784;DHT22;19359;51.402;6.778;2023-09-18T13:27:22;29.00;99.90
7784;DHT22;19359;51.402;6.778;2023-09-18T13:29:49;28.80;99.90
7784;DHT22;19359;51.402;6.778;2023-09-18T13:32:18;28.30;99.90
7784;DHT22;19359;51.402;6.778;2023-09-18T13:34:44;28.60;99.90
7784;DHT22;19359;51.402;6.778;2023-09-18T13:37:14;29.10;99.90
7784;DHT22;19359;51.402;6.778;2023-09-18T13:39:42;29.60;99.90
7784;DHT22;19359;51.402;6.778;2023-09-18T13:42:11;29.60;99.90
7784;DHT22;19359;51.402;6.778;2023-09-18T13:44:38;29.50;99.90
7784;DHT22;19359;51.402;6.778;2023-09-18T13:47:04;29.10;99.90
7784;DHT22;19359;51.402;6.778;2023-09-18T13:49:31;29.30;99.90
7784;DHT22;19359;51.402;6.778;2023-09-18T13:51:58;29.70;99.90
7784;DHT22;19359;51.402;6.778;2023-09-18T13:54:27;29.90;99.90
7784;DHT22;19359;51.402;6.778;2023-09-18T13:56:55;29.70;99.90
7784;DHT22;19359;51.402;6.778;2023-09-18T13:59:22;29.40;99.90
7784;DHT22;19359;51.402;6.778;2023-09-18T14:01:48;29.70;99.90
7784;DHT22;19359;51.402;6.778;2023-09-18T14:04:17;30.30;99.90
7784;DHT22;19359;51.402;6.778;2023-09-18T14:06:44;30.60;99.90
7784;DHT22;19359;51.402;6.778;2023-09-18T14:09:11;30.80;99.90
7784;DHT22;19359;51.402;6.778;2023-09-18T14:11:39;30.70;99.90
7784;DHT22;19359;51.402;6.778;2023-09-18T14:14:06;30.30;99.90
7784;DHT22;19359;51.402;6.778;2023-09-18T14:16:33;30.60;99.90
7784;DHT22;19359;51.402;6.778;2023-09-18T14:19:00;31.20;99.90
7784;DHT22;19359;51.402;6.778;2023-09-18T14:21:27;31.40;99.90
7784;DHT22;19359;51.402;6.778;2023-09-18T14:23:55;31.20;99.90
7784;DHT22;19359;51.402;6.778;2023-09-18T14:26:21;30.70;99.90
7784;DHT22;19359;51.402;6.778;2023-09-18T14:28:49;31.10;99.90
7784;DHT22;19359;51.402;6.778;2023-09-18T14:31:16;31.20;99.90
7784;DHT22;19359;51.402;6.778;2023-09-18T14:33:43;31.20;99.90
7784;DHT22;19359;51.402;6.778;2023-09-18T14:36:10;31.40;99.90
7784;DHT22;19359;51.402;6.778;2023-09-18T14:41:05;30.70;99.90
7784;DHT22;19359;51.402;6.778;2023-09-18T14:48:29;30.80;99.90
7784;DHT22;19359;51.402;6.778;2023-09-18T14:50:58;30.90;99.90
7784;DHT22;19359;51.402;6.778;2023-09-18T14:53:25;32.10;99.90
7784;DHT22;19359;51.402;6.778;2023-09-18T14:55:51;31.80;99.90
7784;DHT22;19359;51.402;6.778;2023-09-18T14:58:20;31.60;99.90
7784;DHT22;19359;51.402;6.778;2023-09-18T15:28:05;30.40;99.90
7784;DHT22;19359;51.402;6.778;2023-09-18T15:30:32;29.90;99.90
7784;DHT22;19359;51.402;6.778;2023-09-18T15:33:01;29.00;99.90
7784;DHT22;19359;51.402;6.778;2023-09-18T15:35:28;28.90;99.90
7784;DHT22;19359;51.402;6.778;2023-09-18T15:37:56;28.60;99.90
7784;DHT22;19359;51.402;6.778;2023-09-18T15:45:17;29.40;1.00
7784;DHT22;19359;51.402;6.778;2023-09-18T15:47:44;29.70;1.00
7784;DHT22;19359;51.402;6.778;2023-09-18T15:50:12;29.30;99.90
7784;DHT22;19359;51.402;6.778;2023-09-18T15:52:39;28.80;99.90
7784;DHT22;19359;51.402;6.778;2023-09-18T15:55:08;29.10;99.90
7784;DHT22;19359;51.402;6.778;2023-09-18T15:57:37;29.00;99.90
7784;DHT22;19359;51.402;6.778;2023-09-18T16:00:06;29.00;99.90
7784;DHT22;19359;51.402;6.778;2023-09-18T16:02:34;29.30;99.90
7784;DHT22;19359;51.402;6.778;2023-09-18T16:05:01;28.80;99.90
7784;DHT22;19359;51.402;6.778;2023-09-18T16:07:30;29.00;99.90
7784;DHT22;19359;51.402;6.778;2023-09-18T16:09:57;28.80;96.10
7784;DHT22;19359;51.402;6.778;2023-09-18T16:14:53;28.20;99.90
7784;DHT22;19359;51.402;6.778;2023-09-18T16:17:20;28.00;99.90
7784;DHT22;19359;51.402;6.778;2023-09-18T16:19:47;27.30;99.90
7784;DHT22;19359;51.402;6.778;2023-09-18T16:22:14;26.90;99.90
7784;DHT22;19359;51.402;6.778;2023-09-18T16:24:41;26.30;1.00
7784;DHT22;19359;51.402;6.778;2023-09-18T16:27:08;26.00;1.00
7784;DHT22;19359;51.402;6.778;2023-09-18T16:29:38;26.00;99.90
7784;DHT22;19359;51.402;6.778;2023-09-18T16:32:05;25.60;99.90
7784;DHT22;19359;51.402;6.778;2023-09-18T16:34:32;25.50;1.00
7784;DHT22;19359;51.402;6.778;2023-09-18T16:36:59;25.30;99.90
7784;DHT22;19359;51.402;6.778;2023-09-18T16:39:26;25.00;99.90
7784;DHT22;19359;51.402;6.778;2023-09-18T16:41:53;24.90;99.90
7784;DHT22;19359;51.402;6.778;2023-09-18T16:46:49;24.50;99.90
7784;DHT22;19359;51.402;6.778;2023-09-18T16:49:16;24.10;99.90
7784;DHT22;19359;51.402;6.778;2023-09-18T16:51:47;25.10;99.90
7784;DHT22;19359;51.402;6.778;2023-09-18T16:54:14;24.10;99.90
7784;DHT22;19359;51.402;6.778;2023-09-18T16:59:08;23.90;99.90
7784;DHT22;19359;51.402;6.778;2023-09-18T17:01:35;24.00;99.90
7784;DHT22;19359;51.402;6.778;2023-09-18T17:04:04;23.80;99.90
7784;DHT22;19359;51.402;6.778;2023-09-18T17:06:31;23.90;99.90
7784;DHT22;19359;51.402;6.778;2023-09-18T17:09:00;23.80;99.90
7784;DHT22;19359;51.402;6.778;2023-09-18T17:11:28;23.80;99.90
7784;DHT22;19359;51.402;6.778;2023-09-18T17:13:54;23.70;99.90